sensor_id;sensor_type;location;lat;lon;timestamp;P1;durP1;ratioP1;P2;durP2;ratioP2
9260;SDS011;4667;42.726;23.252;2023-02-28T00:00:36;9.73;;;6.23;;
9260;SDS011;4667;42.726;23.252;2023-02-28T00:03:03;13.10;;;6.50;;
9260;SDS011;4667;42.726;23.252;2023-02-28T00:05:32;12.47;;;6.30;;
9260;SDS011;4667;42.726;23.252;2023-02-28T00:08:00;11.63;;;6.60;;
9260;SDS011;4667;42.726;23.252;2023-02-28T00:10:28;8.13;;;6.27;;
9260;SDS011;4667;42.726;23.252;2023-02-28T00:12:56;12.13;;;5.83;;
9260;SDS011;4667;42.726;23.252;2023-02-28T00:15:26;13.13;;;7.40;;
9260;SDS011;4667;42.726;23.252;2023-02-28T00:17:53;8.20;;;5.43;;
9260;SDS011;4667;42.726;23.252;2023-02-28T00:28:48;12.07;;;6.47;;
9260;SDS011;4667;42.726;23.252;2023-02-28T00:31:17;7.07;;;4.63;;
9260;SDS011;4667;42.726;23.252;2023-02-28T00:33:44;10.57;;;6.10;;
9260;SDS011;4667;42.726;23.252;2023-02-28T00:36:11;6.77;;;4.70;;
9260;SDS011;4667;42.726;23.252;2023-02-28T00:38:37;7.60;;;5.37;;
9260;SDS011;4667;42.726;23.252;2023-02-28T00:41:05;6.87;;;4.80;;
9260;SDS011;4667;42.726;23.252;2023-02-28T00:43:32;13.97;;;5.97;;
9260;SDS011;4667;42.726;23.252;2023-02-28T00:46:00;9.40;;;5.70;;
9260;SDS011;4667;42.726;23.252;2023-02-28T00:48:27;13.47;;;6.13;;
9260;SDS011;4667;42.726;23.252;2023-02-28T00:50:53;9.30;;;4.93;;
9260;SDS011;4667;42.726;23.252;2023-02-28T00:53:20;8.47;;;5.53;;
9260;SDS011;4667;42.726;23.252;2023-02-28T00:55:48;14.40;;;5.47;;
9260;SDS011;4667;42.726;23.252;2023-02-28T00:58:15;10.53;;;6.00;;
9260;SDS011;4667;42.726;23.252;2023-02-28T01:00:42;11.70;;;6.57;;
9260;SDS011;4667;42.726;23.252;2023-02-28T01:03:10;11.30;;;6.03;;
9260;SDS011;4667;42.726;23.252;2023-02-28T01:05:36;9.87;;;5.93;;
9260;SDS011;4667;42.726;23.252;2023-02-28T01:08:03;7.20;;;6.10;;
9260;SDS011;4667;42.726;23.252;2023-02-28T01:10:31;10.80;;;6.03;;
9260;SDS011;4667;42.726;23.252;2023-02-28T01:12:58;9.73;;;6.37;;
9260;SDS011;4667;42.726;23.252;2023-02-28T01:15:24;8.70;;;6.03;;
9260;SDS011;4667;42.726;23.252;2023-02-28T01:17:51;12.47;;;6.33;;
9260;SDS011;4667;42.726;23.252;2023-02-28T01:20:19;9.53;;;7.17;;
9260;SDS011;4667;42.726;23.252;2023-02-28T01:22:46;11.40;;;6.23;;
9260;SDS011;4667;42.726;23.252;2023-02-28T01:25:13;7.03;;;6.23;;
9260;SDS011;4667;42.726;23.252;2023-02-28T01:27:40;11.10;;;5.83;;
9260;SDS011;4667;42.726;23.252;2023-02-28T01:30:07;11.57;;;6.20;;
9260;SDS011;4667;42.726;23.252;2023-02-28T01:32:35;9.83;;;5.57;;
9260;SDS011;4667;42.726;23.252;2023-02-28T01:35:02;12.37;;;6.17;;
9260;SDS011;4667;42.726;23.252;2023-02-28T01:37:31;14.30;;;5.67;;
9260;SDS011;4667;42.726;23.252;2023-02-28T01:39:58;12.27;;;7.37;;
9260;SDS011;4667;42.726;23.252;2023-02-28T01:42:26;10.43;;;5.90;;
9260;SDS011;4667;42.726;23.252;2023-02-28T01:45:00;8.53;;;5.57;;
9260;SDS011;4667;42.726;23.252;2023-02-28T01:47:31;7.10;;;5.77;;
9260;SDS011;4667;42.726;23.252;2023-02-28T01:50:04;7.10;;;5.47;;
9260;SDS011;4667;42.726;23.252;2023-02-28T01:52:35;13.63;;;6.63;;
9260;SDS011;4667;42.726;23.252;2023-02-28T01:55:03;7.97;;;5.10;;
9260;SDS011;4667;42.726;23.252;2023-02-28T01:57:34;14.87;;;5.73;;
9260;SDS011;4667;42.726;23.252;2023-02-28T02:00:05;8.90;;;5.50;;
9260;SDS011;4667;42.726;23.252;2023-02-28T02:02:34;7.10;;;5.50;;
9260;SDS011;4667;42.726;23.252;2023-02-28T02:05:05;10.13;;;5.63;;
9260;SDS011;4667;42.726;23.252;2023-02-28T02:07:35;13.60;;;7.47;;
9260;SDS011;4667;42.726;23.252;2023-02-28T02:10:05;11.37;;;6.60;;
9260;SDS011;4667;42.726;23.252;2023-02-28T02:12:53;10.70;;;6.10;;
9260;SDS011;4667;42.726;23.252;2023-02-28T02:15:30;9.97;;;6.17;;
9260;SDS011;4667;42.726;23.252;2023-02-28T02:18:01;7.33;;;5.53;;
9260;SDS011;4667;42.726;23.252;2023-02-28T02:20:46;8.67;;;5.43;;
9260;SDS011;4667;42.726;23.252;2023-02-28T02:26:58;10.13;;;5.80;;
9260;SDS011;4667;42.726;23.252;2023-02-28T02:35:31;8.00;;;6.13;;
9260;SDS011;4667;42.726;23.252;2023-02-28T02:38:06;13.00;;;7.43;;
9260;SDS011;4667;42.726;23.252;2023-02-28T02:40:38;10.07;;;6.23;;
9260;SDS011;4667;42.726;23.252;2023-02-28T02:43:11;12.27;;;6.40;;
9260;SDS011;4667;42.726;23.252;2023-02-28T02:45:43;11.57;;;6.33;;
9260;SDS011;4667;42.726;23.252;2023-02-28T02:48:16;16.53;;;7.27;;
9260;SDS011;4667;42.726;23.252;2023-02-28T02:50:48;12.70;;;6.77;;
9260;SDS011;4667;42.726;23.252;2023-02-28T02:53:18;7.43;;;5.97;;
9260;SDS011;4667;42.726;23.252;2023-02-28T02:55:49;10.93;;;6.90;;
9260;SDS011;4667;42.726;23.252;2023-02-28T02:58:20;9.27;;;6.60;;
9260;SDS011;4667;42.726;23.252;2023-02-28T03:00:51;11.17;;;6.47;;
9260;SDS011;4667;42.726;23.252;2023-02-28T03:03:21;13.73;;;7.13;;
9260;SDS011;4667;42.726;23.252;2023-02-28T03:05:55;10.73;;;5.93;;
9260;SDS011;4667;42.726;23.252;2023-02-28T03:08:23;9.00;;;6.63;;
9260;SDS011;4667;42.726;23.252;2023-02-28T03:10:50;12.33;;;8.00;;
9260;SDS011;4667;42.726;23.252;2023-02-28T03:16:29;11.30;;;7.30;;
9260;SDS011;4667;42.726;23.252;2023-02-28T03:22:09;10.10;;;5.90;;
9260;SDS011;4667;42.726;23.252;2023-02-28T03:24:45;13.67;;;6.77;;
9260;SDS011;4667;42.726;23.252;2023-02-28T03:27:21;10.10;;;5.97;;
9260;SDS011;4667;42.726;23.252;2023-02-28T03:29:51;11.70;;;6.97;;
9260;SDS011;4667;42.726;23.252;2023-02-28T03:32:26;11.93;;;6.93;;
9260;SDS011;4667;42.726;23.252;2023-02-28T03:34:58;13.30;;;7.37;;
9260;SDS011;4667;42.726;23.252;2023-02-28T03:37:32;11.80;;;6.80;;
9260;SDS011;4667;42.726;23.252;2023-02-28T03:40:03;14.87;;;7.17;;
9260;SDS011;4667;42.726;23.252;2023-02-28T03:42:35;11.30;;;6.93;;
9260;SDS011;4667;42.726;23.252;2023-02-28T03:45:05;9.30;;;6.20;;
9260;SDS011;4667;42.726;23.252;2023-02-28T03:47:39;13.93;;;6.00;;
9260;SDS011;4667;42.726;23.252;2023-02-28T03:50:12;11.33;;;5.80;;
9260;SDS011;4667;42.726;23.252;2023-02-28T03:52:46;10.47;;;6.10;;
9260;SDS011;4667;42.726;23.252;2023-02-28T03:55:16;15.77;;;6.33;;
9260;SDS011;4667;42.726;23.252;2023-02-28T03:57:47;18.63;;;8.27;;
9260;SDS011;4667;42.726;23.252;2023-02-28T04:00:25;11.10;;;6.60;;
9260;SDS011;4667;42.726;23.252;2023-02-28T04:02:55;8.63;;;5.97;;
9260;SDS011;4667;42.726;23.252;2023-02-28T04:05:22;12.93;;;7.27;;
9260;SDS011;4667;42.726;23.252;2023-02-28T04:07:51;9.33;;;6.43;;
9260;SDS011;4667;42.726;23.252;2023-02-28T04:10:19;10.30;;;5.67;;
9260;SDS011;4667;42.726;23.252;2023-02-28T04:12:46;14.17;;;6.73;;
9260;SDS011;4667;42.726;23.252;2023-02-28T04:15:15;22.87;;;8.77;;
9260;SDS011;4667;42.726;23.252;2023-02-28T04:17:42;21.13;;;8.87;;
9260;SDS011;4667;42.726;23.252;2023-02-28T04:20:09;15.40;;;7.30;;
9260;SDS011;4667;42.726;23.252;2023-02-28T04:22:36;14.33;;;7.23;;
9260;SDS011;4667;42.726;23.252;2023-02-28T04:25:05;16.47;;;8.50;;
9260;SDS011;4667;42.726;23.252;2023-02-28T04:27:33;12.53;;;7.83;;
9260;SDS011;4667;42.726;23.252;2023-02-28T04:30:00;12.80;;;7.33;;
9260;SDS011;4667;42.726;23.252;2023-02-28T04:32:26;14.47;;;8.03;;
9260;SDS011;4667;42.726;23.252;2023-02-28T04:34:53;12.70;;;8.17;;
9260;SDS011;4667;42.726;23.252;2023-02-28T04:37:20;17.97;;;9.47;;
9260;SDS011;4667;42.726;23.252;2023-02-28T04:39:52;14.97;;;8.60;;
9260;SDS011;4667;42.726;23.252;2023-02-28T04:42:21;10.83;;;7.60;;
9260;SDS011;4667;42.726;23.252;2023-02-28T04:44:47;13.07;;;7.70;;
9260;SDS011;4667;42.726;23.252;2023-02-28T04:47:14;13.13;;;7.60;;
9260;SDS011;4667;42.726;23.252;2023-02-28T04:49:41;11.80;;;7.73;;
9260;SDS011;4667;42.726;23.252;2023-02-28T04:52:07;12.20;;;6.43;;
9260;SDS011;4667;42.726;23.252;2023-02-28T04:54:35;10.53;;;5.53;;
9260;SDS011;4667;42.726;23.252;2023-02-28T04:57:03;11.97;;;6.03;;
9260;SDS011;4667;42.726;23.252;2023-02-28T04:59:32;11.03;;;7.23;;
9260;SDS011;4667;42.726;23.252;2023-02-28T05:01:59;11.73;;;7.50;;
9260;SDS011;4667;42.726;23.252;2023-02-28T05:04:31;10.87;;;6.37;;
9260;SDS011;4667;42.726;23.252;2023-02-28T05:06:59;11.67;;;7.53;;
9260;SDS011;4667;42.726;23.252;2023-02-28T05:09:26;12.53;;;6.30;;
9260;SDS011;4667;42.726;23.252;2023-02-28T05:11:53;9.43;;;6.37;;
9260;SDS011;4667;42.726;23.252;2023-02-28T05:14:20;11.83;;;6.83;;
9260;SDS011;4667;42.726;23.252;2023-02-28T05:16:48;10.07;;;5.10;;
9260;SDS011;4667;42.726;23.252;2023-02-28T05:19:15;8.50;;;6.03;;
9260;SDS011;4667;42.726;23.252;2023-02-28T05:21:48;11.93;;;6.83;;
9260;SDS011;4667;42.726;23.252;2023-02-28T05:24:17;10.33;;;6.47;;
9260;SDS011;4667;42.726;23.252;2023-02-28T05:26:48;6.20;;;5.17;;
9260;SDS011;4667;42.726;23.252;2023-02-28T05:29:16;10.10;;;5.73;;
9260;SDS011;4667;42.726;23.252;2023-02-28T05:31:43;9.50;;;5.57;;
9260;SDS011;4667;42.726;23.252;2023-02-28T05:34:11;11.33;;;6.93;;
9260;SDS011;4667;42.726;23.252;2023-02-28T05:36:40;10.47;;;7.23;;
9260;SDS011;4667;42.726;23.252;2023-02-28T05:39:07;9.10;;;5.97;;
9260;SDS011;4667;42.726;23.252;2023-02-28T05:41:38;9.37;;;5.57;;
9260;SDS011;4667;42.726;23.252;2023-02-28T05:44:06;9.10;;;7.03;;
9260;SDS011;4667;42.726;23.252;2023-02-28T05:46:33;12.10;;;6.67;;
9260;SDS011;4667;42.726;23.252;2023-02-28T05:49:00;10.73;;;6.10;;
9260;SDS011;4667;42.726;23.252;2023-02-28T05:51:28;8.77;;;6.10;;
9260;SDS011;4667;42.726;23.252;2023-02-28T05:53:58;11.07;;;6.93;;
9260;SDS011;4667;42.726;23.252;2023-02-28T05:56:26;14.00;;;8.03;;
9260;SDS011;4667;42.726;23.252;2023-02-28T05:58:52;12.13;;;7.53;;
9260;SDS011;4667;42.726;23.252;2023-02-28T06:01:20;13.47;;;7.30;;
9260;SDS011;4667;42.726;23.252;2023-02-28T06:03:58;15.80;;;9.60;;
9260;SDS011;4667;42.726;23.252;2023-02-28T06:06:29;16.40;;;7.83;;
9260;SDS011;4667;42.726;23.252;2023-02-28T06:08:56;11.77;;;7.77;;
9260;SDS011;4667;42.726;23.252;2023-02-28T06:11:25;16.83;;;8.40;;
9260;SDS011;4667;42.726;23.252;2023-02-28T06:13:53;14.53;;;6.97;;
9260;SDS011;4667;42.726;23.252;2023-02-28T06:16:21;17.37;;;8.97;;
9260;SDS011;4667;42.726;23.252;2023-02-28T06:18:48;13.17;;;7.60;;
9260;SDS011;4667;42.726;23.252;2023-02-28T06:21:15;17.20;;;7.90;;
9260;SDS011;4667;42.726;23.252;2023-02-28T06:23:43;13.13;;;8.63;;
9260;SDS011;4667;42.726;23.252;2023-02-28T06:26:09;21.40;;;10.80;;
9260;SDS011;4667;42.726;23.252;2023-02-28T06:28:37;19.17;;;9.77;;
9260;SDS011;4667;42.726;23.252;2023-02-28T06:31:05;19.43;;;9.43;;
9260;SDS011;4667;42.726;23.252;2023-02-28T06:33:36;15.07;;;8.63;;
9260;SDS011;4667;42.726;23.252;2023-02-28T06:36:04;18.67;;;9.43;;
9260;SDS011;4667;42.726;23.252;2023-02-28T06:38:32;17.80;;;9.17;;
9260;SDS011;4667;42.726;23.252;2023-02-28T06:41:00;17.60;;;9.50;;
9260;SDS011;4667;42.726;23.252;2023-02-28T06:43:28;11.10;;;8.23;;
9260;SDS011;4667;42.726;23.252;2023-02-28T06:45:56;15.13;;;8.47;;
9260;SDS011;4667;42.726;23.252;2023-02-28T06:48:24;17.73;;;9.60;;
9260;SDS011;4667;42.726;23.252;2023-02-28T06:50:52;13.80;;;8.27;;
9260;SDS011;4667;42.726;23.252;2023-02-28T06:53:18;16.43;;;9.37;;
9260;SDS011;4667;42.726;23.252;2023-02-28T06:55:45;17.80;;;9.47;;
9260;SDS011;4667;42.726;23.252;2023-02-28T06:58:22;16.17;;;10.03;;
9260;SDS011;4667;42.726;23.252;2023-02-28T07:00:50;16.73;;;10.37;;
9260;SDS011;4667;42.726;23.252;2023-02-28T07:03:18;17.20;;;9.83;;
9260;SDS011;4667;42.726;23.252;2023-02-28T07:05:45;21.33;;;11.87;;
9260;SDS011;4667;42.726;23.252;2023-02-28T07:08:11;24.13;;;11.43;;
9260;SDS011;4667;42.726;23.252;2023-02-28T07:10:38;22.40;;;12.40;;
9260;SDS011;4667;42.726;23.252;2023-02-28T07:13:07;25.93;;;11.60;;
9260;SDS011;4667;42.726;23.252;2023-02-28T07:15:36;22.47;;;12.57;;
9260;SDS011;4667;42.726;23.252;2023-02-28T07:18:06;21.60;;;12.80;;
9260;SDS011;4667;42.726;23.252;2023-02-28T07:20:33;20.67;;;12.00;;
9260;SDS011;4667;42.726;23.252;2023-02-28T07:22:59;21.97;;;11.20;;
9260;SDS011;4667;42.726;23.252;2023-02-28T07:25:27;20.50;;;10.13;;
9260;SDS011;4667;42.726;23.252;2023-02-28T07:27:54;19.43;;;11.50;;
9260;SDS011;4667;42.726;23.252;2023-02-28T07:30:24;18.93;;;11.43;;
9260;SDS011;4667;42.726;23.252;2023-02-28T07:32:54;19.87;;;11.13;;
9260;SDS011;4667;42.726;23.252;2023-02-28T07:35:22;30.23;;;13.03;;
9260;SDS011;4667;42.726;23.252;2023-02-28T07:37:48;24.00;;;13.17;;
9260;SDS011;4667;42.726;23.252;2023-02-28T07:40:16;26.00;;;13.23;;
9260;SDS011;4667;42.726;23.252;2023-02-28T07:42:44;24.73;;;12.40;;
9260;SDS011;4667;42.726;23.252;2023-02-28T07:45:30;20.53;;;11.27;;
9260;SDS011;4667;42.726;23.252;2023-02-28T07:48:00;22.00;;;12.50;;
9260;SDS011;4667;42.726;23.252;2023-02-28T07:50:28;27.17;;;12.30;;
9260;SDS011;4667;42.726;23.252;2023-02-28T07:52:56;23.03;;;12.23;;
9260;SDS011;4667;42.726;23.252;2023-02-28T07:55:22;23.63;;;12.90;;
9260;SDS011;4667;42.726;23.252;2023-02-28T07:57:49;23.00;;;13.20;;
9260;SDS011;4667;42.726;23.252;2023-02-28T08:00:16;18.13;;;11.77;;
9260;SDS011;4667;42.726;23.252;2023-02-28T08:02:43;23.70;;;12.10;;
9260;SDS011;4667;42.726;23.252;2023-02-28T08:05:11;24.87;;;12.50;;
9260;SDS011;4667;42.726;23.252;2023-02-28T08:07:38;24.77;;;12.33;;
9260;SDS011;4667;42.726;23.252;2023-02-28T08:10:05;27.30;;;12.33;;
9260;SDS011;4667;42.726;23.252;2023-02-28T08:12:34;23.33;;;10.60;;
9260;SDS011;4667;42.726;23.252;2023-02-28T08:15:01;20.33;;;10.50;;
9260;SDS011;4667;42.726;23.252;2023-02-28T08:17:29;19.77;;;11.30;;
9260;SDS011;4667;42.726;23.252;2023-02-28T08:19:56;16.97;;;9.67;;
9260;SDS011;4667;42.726;23.252;2023-02-28T08:22:24;26.43;;;12.40;;
9260;SDS011;4667;42.726;23.252;2023-02-28T08:24:51;21.07;;;11.67;;
9260;SDS011;4667;42.726;23.252;2023-02-28T08:27:18;21.87;;;13.27;;
9260;SDS011;4667;42.726;23.252;2023-02-28T08:29:44;21.83;;;10.70;;
9260;SDS011;4667;42.726;23.252;2023-02-28T08:32:12;21.43;;;11.63;;
9260;SDS011;4667;42.726;23.252;2023-02-28T08:34:39;24.03;;;11.07;;
9260;SDS011;4667;42.726;23.252;2023-02-28T08:37:12;23.80;;;11.27;;
9260;SDS011;4667;42.726;23.252;2023-02-28T08:39:41;21.13;;;10.50;;
9260;SDS011;4667;42.726;23.252;2023-02-28T08:42:08;21.20;;;11.90;;
9260;SDS011;4667;42.726;23.252;2023-02-28T08:44:35;20.43;;;10.77;;
9260;SDS011;4667;42.726;23.252;2023-02-28T08:47:02;26.37;;;11.30;;
9260;SDS011;4667;42.726;23.252;2023-02-28T08:49:32;21.80;;;11.00;;
9260;SDS011;4667;42.726;23.252;2023-02-28T08:52:00;21.23;;;10.93;;
9260;SDS011;4667;42.726;23.252;2023-02-28T08:54:27;20.23;;;12.20;;
9260;SDS011;4667;42.726;23.252;2023-02-28T08:56:59;26.13;;;12.97;;
9260;SDS011;4667;42.726;23.252;2023-02-28T08:59:26;25.60;;;12.00;;
9260;SDS011;4667;42.726;23.252;2023-02-28T09:01:54;24.07;;;12.07;;
9260;SDS011;4667;42.726;23.252;2023-02-28T09:04:21;23.23;;;10.53;;
9260;SDS011;4667;42.726;23.252;2023-02-28T09:06:50;23.13;;;11.07;;
9260;SDS011;4667;42.726;23.252;2023-02-28T09:09:18;23.50;;;11.57;;
9260;SDS011;4667;42.726;23.252;2023-02-28T09:11:45;22.37;;;11.40;;
9260;SDS011;4667;42.726;23.252;2023-02-28T09:14:13;22.00;;;11.43;;
9260;SDS011;4667;42.726;23.252;2023-02-28T09:16:42;28.03;;;13.50;;
9260;SDS011;4667;42.726;23.252;2023-02-28T09:19:10;21.77;;;11.60;;
9260;SDS011;4667;42.726;23.252;2023-02-28T09:21:38;25.80;;;12.67;;
9260;SDS011;4667;42.726;23.252;2023-02-28T09:24:05;21.87;;;11.37;;
9260;SDS011;4667;42.726;23.252;2023-02-28T09:26:34;20.33;;;11.10;;
9260;SDS011;4667;42.726;23.252;2023-02-28T09:29:02;16.53;;;10.63;;
9260;SDS011;4667;42.726;23.252;2023-02-28T09:31:35;25.83;;;13.53;;
9260;SDS011;4667;42.726;23.252;2023-02-28T09:34:03;19.63;;;11.97;;
9260;SDS011;4667;42.726;23.252;2023-02-28T09:36:31;18.97;;;10.87;;
9260;SDS011;4667;42.726;23.252;2023-02-28T09:39:00;26.00;;;14.13;;
9260;SDS011;4667;42.726;23.252;2023-02-28T09:41:26;20.80;;;11.00;;
9260;SDS011;4667;42.726;23.252;2023-02-28T09:44:00;24.67;;;12.53;;
9260;SDS011;4667;42.726;23.252;2023-02-28T09:46:33;20.30;;;12.10;;
9260;SDS011;4667;42.726;23.252;2023-02-28T09:49:06;22.00;;;12.67;;
9260;SDS011;4667;42.726;23.252;2023-02-28T09:51:40;23.20;;;10.80;;
9260;SDS011;4667;42.726;23.252;2023-02-28T09:54:14;15.80;;;9.40;;
9260;SDS011;4667;42.726;23.252;2023-02-28T09:56:45;16.17;;;10.87;;
9260;SDS011;4667;42.726;23.252;2023-02-28T09:59:20;18.27;;;10.90;;
9260;SDS011;4667;42.726;23.252;2023-02-28T10:02:00;15.87;;;9.40;;
9260;SDS011;4667;42.726;23.252;2023-02-28T10:04:38;16.97;;;10.53;;
9260;SDS011;4667;42.726;23.252;2023-02-28T10:07:19;14.03;;;10.13;;
9260;SDS011;4667;42.726;23.252;2023-02-28T10:09:57;17.40;;;9.57;;
9260;SDS011;4667;42.726;23.252;2023-02-28T10:12:27;22.43;;;10.17;;
9260;SDS011;4667;42.726;23.252;2023-02-28T10:14:57;15.60;;;8.47;;
9260;SDS011;4667;42.726;23.252;2023-02-28T10:17:26;16.50;;;9.33;;
9260;SDS011;4667;42.726;23.252;2023-02-28T10:19:56;16.97;;;9.03;;
9260;SDS011;4667;42.726;23.252;2023-02-28T10:22:26;19.63;;;9.37;;
9260;SDS011;4667;42.726;23.252;2023-02-28T10:24:55;16.33;;;9.57;;
9260;SDS011;4667;42.726;23.252;2023-02-28T10:27:25;17.70;;;10.03;;
9260;SDS011;4667;42.726;23.252;2023-02-28T10:29:55;22.43;;;10.73;;
9260;SDS011;4667;42.726;23.252;2023-02-28T10:32:22;17.50;;;10.23;;
9260;SDS011;4667;42.726;23.252;2023-02-28T10:34:52;16.53;;;9.37;;
9260;SDS011;4667;42.726;23.252;2023-02-28T10:37:21;22.07;;;11.43;;
9260;SDS011;4667;42.726;23.252;2023-02-28T10:39:48;17.13;;;9.63;;
9260;SDS011;4667;42.726;23.252;2023-02-28T10:42:24;15.07;;;10.40;;
9260;SDS011;4667;42.726;23.252;2023-02-28T10:45:04;19.43;;;9.93;;
9260;SDS011;4667;42.726;23.252;2023-02-28T10:47:31;13.70;;;8.30;;
9260;SDS011;4667;42.726;23.252;2023-02-28T10:50:02;19.50;;;6.43;;
9260;SDS011;4667;42.726;23.252;2023-02-28T10:52:36;12.20;;;6.63;;
9260;SDS011;4667;42.726;23.252;2023-02-28T10:55:19;11.93;;;6.07;;
9260;SDS011;4667;42.726;23.252;2023-02-28T10:57:47;12.37;;;5.97;;
9260;SDS011;4667;42.726;23.252;2023-02-28T11:00:15;14.60;;;7.20;;
9260;SDS011;4667;42.726;23.252;2023-02-28T11:02:42;16.90;;;5.80;;
9260;SDS011;4667;42.726;23.252;2023-02-28T11:07:56;11.80;;;5.47;;
9260;SDS011;4667;42.726;23.252;2023-02-28T11:10:26;20.07;;;6.40;;
9260;SDS011;4667;42.726;23.252;2023-02-28T11:12:55;11.23;;;6.37;;
9260;SDS011;4667;42.726;23.252;2023-02-28T11:15:23;12.07;;;6.80;;
9260;SDS011;4667;42.726;23.252;2023-02-28T11:17:54;9.10;;;5.80;;
9260;SDS011;4667;42.726;23.252;2023-02-28T11:20:21;11.30;;;7.30;;
9260;SDS011;4667;42.726;23.252;2023-02-28T11:22:48;11.23;;;5.37;;
9260;SDS011;4667;42.726;23.252;2023-02-28T11:25:19;11.40;;;5.43;;
9260;SDS011;4667;42.726;23.252;2023-02-28T11:27:49;9.07;;;5.13;;
9260;SDS011;4667;42.726;23.252;2023-02-28T11:32:58;12.43;;;5.00;;
9260;SDS011;4667;42.726;23.252;2023-02-28T11:35:26;14.10;;;5.17;;
9260;SDS011;4667;42.726;23.252;2023-02-28T11:37:53;8.93;;;5.97;;
9260;SDS011;4667;42.726;23.252;2023-02-28T11:40:21;10.93;;;6.73;;
9260;SDS011;4667;42.726;23.252;2023-02-28T11:42:54;15.23;;;6.60;;
9260;SDS011;4667;42.726;23.252;2023-02-28T11:45:28;10.30;;;6.13;;
9260;SDS011;4667;42.726;23.252;2023-02-28T11:48:03;11.03;;;6.80;;
9260;SDS011;4667;42.726;23.252;2023-02-28T11:50:39;10.87;;;5.77;;
9260;SDS011;4667;42.726;23.252;2023-02-28T11:53:10;11.27;;;6.60;;
9260;SDS011;4667;42.726;23.252;2023-02-28T11:55:41;14.17;;;5.07;;
9260;SDS011;4667;42.726;23.252;2023-02-28T11:58:17;12.17;;;5.77;;
9260;SDS011;4667;42.726;23.252;2023-02-28T12:00:54;12.07;;;6.33;;
9260;SDS011;4667;42.726;23.252;2023-02-28T12:03:27;16.40;;;5.97;;
9260;SDS011;4667;42.726;23.252;2023-02-28T12:05:57;9.57;;;5.50;;
9260;SDS011;4667;42.726;23.252;2023-02-28T12:08:31;9.17;;;6.50;;
9260;SDS011;4667;42.726;23.252;2023-02-28T12:11:07;13.70;;;5.53;;
9260;SDS011;4667;42.726;23.252;2023-02-28T12:13:42;10.77;;;5.47;;
9260;SDS011;4667;42.726;23.252;2023-02-28T12:16:25;8.60;;;5.07;;
9260;SDS011;4667;42.726;23.252;2023-02-28T12:19:07;9.40;;;4.20;;
9260;SDS011;4667;42.726;23.252;2023-02-28T12:21:40;10.63;;;5.60;;
9260;SDS011;4667;42.726;23.252;2023-02-28T12:24:21;15.87;;;5.93;;
9260;SDS011;4667;42.726;23.252;2023-02-28T12:26:51;13.63;;;5.53;;
9260;SDS011;4667;42.726;23.252;2023-02-28T12:29:21;8.23;;;5.17;;
9260;SDS011;4667;42.726;23.252;2023-02-28T12:31:49;8.43;;;5.17;;
9260;SDS011;4667;42.726;23.252;2023-02-28T12:34:19;13.90;;;6.70;;
9260;SDS011;4667;42.726;23.252;2023-02-28T12:36:47;10.07;;;6.03;;
9260;SDS011;4667;42.726;23.252;2023-02-28T12:39:15;9.20;;;5.43;;
9260;SDS011;4667;42.726;23.252;2023-02-28T12:41:45;13.13;;;6.10;;
9260;SDS011;4667;42.726;23.252;2023-02-28T12:44:14;12.40;;;5.47;;
9260;SDS011;4667;42.726;23.252;2023-02-28T12:46:44;18.73;;;7.23;;
9260;SDS011;4667;42.726;23.252;2023-02-28T12:49:15;6.43;;;4.87;;
9260;SDS011;4667;42.726;23.252;2023-02-28T12:51:42;8.67;;;4.60;;
9260;SDS011;4667;42.726;23.252;2023-02-28T12:54:11;10.37;;;5.50;;
9260;SDS011;4667;42.726;23.252;2023-02-28T12:56:45;8.20;;;4.03;;
9260;SDS011;4667;42.726;23.252;2023-02-28T12:59:17;14.63;;;5.17;;
9260;SDS011;4667;42.726;23.252;2023-02-28T13:01:54;8.13;;;5.00;;
9260;SDS011;4667;42.726;23.252;2023-02-28T13:04:32;8.80;;;4.60;;
9260;SDS011;4667;42.726;23.252;2023-02-28T13:07:10;9.53;;;5.17;;
9260;SDS011;4667;42.726;23.252;2023-02-28T13:09:39;15.00;;;6.03;;
9260;SDS011;4667;42.726;23.252;2023-02-28T13:12:12;11.03;;;5.80;;
9260;SDS011;4667;42.726;23.252;2023-02-28T13:14:40;11.50;;;5.80;;
9260;SDS011;4667;42.726;23.252;2023-02-28T13:17:10;13.93;;;4.70;;
9260;SDS011;4667;42.726;23.252;2023-02-28T13:19:38;15.03;;;4.90;;
9260;SDS011;4667;42.726;23.252;2023-02-28T13:22:15;9.73;;;5.37;;
9260;SDS011;4667;42.726;23.252;2023-02-28T13:24:44;12.90;;;4.50;;
9260;SDS011;4667;42.726;23.252;2023-02-28T13:29:53;18.17;;;5.70;;
9260;SDS011;4667;42.726;23.252;2023-02-28T13:40:47;11.23;;;5.33;;
9260;SDS011;4667;42.726;23.252;2023-02-28T13:43:13;13.53;;;4.87;;
9260;SDS011;4667;42.726;23.252;2023-02-28T13:46:10;9.67;;;4.87;;
9260;SDS011;4667;42.726;23.252;2023-02-28T13:48:37;8.87;;;4.57;;
9260;SDS011;4667;42.726;23.252;2023-02-28T13:53:59;8.93;;;5.33;;
9260;SDS011;4667;42.726;23.252;2023-02-28T13:56:33;9.37;;;4.63;;
9260;SDS011;4667;42.726;23.252;2023-02-28T13:59:02;11.37;;;5.97;;
9260;SDS011;4667;42.726;23.252;2023-02-28T14:01:38;8.37;;;5.87;;
9260;SDS011;4667;42.726;23.252;2023-02-28T14:04:19;10.83;;;4.87;;
9260;SDS011;4667;42.726;23.252;2023-02-28T14:06:54;9.93;;;4.80;;
9260;SDS011;4667;42.726;23.252;2023-02-28T14:09:23;11.07;;;5.03;;
9260;SDS011;4667;42.726;23.252;2023-02-28T14:11:51;8.33;;;4.27;;
9260;SDS011;4667;42.726;23.252;2023-02-28T14:17:12;10.07;;;4.00;;
9260;SDS011;4667;42.726;23.252;2023-02-28T14:19:40;11.53;;;5.37;;
9260;SDS011;4667;42.726;23.252;2023-02-28T14:22:13;9.63;;;5.50;;
9260;SDS011;4667;42.726;23.252;2023-02-28T14:27:40;6.53;;;3.80;;
9260;SDS011;4667;42.726;23.252;2023-02-28T14:30:16;14.93;;;4.90;;
9260;SDS011;4667;42.726;23.252;2023-02-28T14:33:18;11.53;;;4.30;;
9260;SDS011;4667;42.726;23.252;2023-02-28T14:35:51;8.80;;;4.70;;
9260;SDS011;4667;42.726;23.252;2023-02-28T14:38:22;11.13;;;5.67;;
9260;SDS011;4667;42.726;23.252;2023-02-28T14:40:51;9.30;;;5.13;;
9260;SDS011;4667;42.726;23.252;2023-02-28T14:43:21;11.43;;;5.20;;
9260;SDS011;4667;42.726;23.252;2023-02-28T14:45:50;8.57;;;4.50;;
9260;SDS011;4667;42.726;23.252;2023-02-28T14:48:28;7.50;;;3.83;;
9260;SDS011;4667;42.726;23.252;2023-02-28T14:51:01;9.63;;;4.70;;
9260;SDS011;4667;42.726;23.252;2023-02-28T14:53:42;9.77;;;5.30;;
9260;SDS011;4667;42.726;23.252;2023-02-28T14:56:26;13.73;;;5.47;;
9260;SDS011;4667;42.726;23.252;2023-02-28T14:59:21;11.17;;;6.20;;
9260;SDS011;4667;42.726;23.252;2023-02-28T15:02:16;10.67;;;5.20;;
9260;SDS011;4667;42.726;23.252;2023-02-28T15:25:07;10.90;;;6.00;;
9260;SDS011;4667;42.726;23.252;2023-02-28T15:27:51;7.47;;;5.23;;
9260;SDS011;4667;42.726;23.252;2023-02-28T15:30:32;11.07;;;5.63;;
9260;SDS011;4667;42.726;23.252;2023-02-28T15:33:18;9.17;;;5.17;;
9260;SDS011;4667;42.726;23.252;2023-02-28T15:36:05;8.47;;;5.63;;
9260;SDS011;4667;42.726;23.252;2023-02-28T15:38:45;12.97;;;6.33;;
9260;SDS011;4667;42.726;23.252;2023-02-28T15:50:28;9.07;;;4.80;;
9260;SDS011;4667;42.726;23.252;2023-02-28T15:52:57;9.03;;;5.70;;
9260;SDS011;4667;42.726;23.252;2023-02-28T15:55:26;6.40;;;4.03;;
9260;SDS011;4667;42.726;23.252;2023-02-28T15:57:55;6.70;;;4.07;;
9260;SDS011;4667;42.726;23.252;2023-02-28T16:00:37;6.67;;;3.47;;
9260;SDS011;4667;42.726;23.252;2023-02-28T16:03:22;4.83;;;4.37;;
9260;SDS011;4667;42.726;23.252;2023-02-28T16:08:33;8.57;;;5.17;;
9260;SDS011;4667;42.726;23.252;2023-02-28T16:11:01;9.27;;;5.73;;
9260;SDS011;4667;42.726;23.252;2023-02-28T16:13:28;6.83;;;5.27;;
9260;SDS011;4667;42.726;23.252;2023-02-28T16:15:58;9.43;;;4.77;;
9260;SDS011;4667;42.726;23.252;2023-02-28T16:18:38;5.50;;;4.17;;
9260;SDS011;4667;42.726;23.252;2023-02-28T16:21:11;6.67;;;3.53;;
9260;SDS011;4667;42.726;23.252;2023-02-28T16:37:34;5.83;;;3.73;;
9260;SDS011;4667;42.726;23.252;2023-02-28T16:40:01;4.90;;;2.77;;
9260;SDS011;4667;42.726;23.252;2023-02-28T16:42:27;5.87;;;3.87;;